TimeMST,TemperatureF,Dew PointF,Humidity,Sea Level PressureIn,VisibilityMPH,Wind Direction,Wind SpeedMPH,Gust SpeedMPH,PrecipitationIn,Events,Conditions,WindDirDegrees,DateUTC
12:54 AM,39.0,26.1,60,30.15,10.0,NE,4.6,-,N/A,,Clear,40,2013-02-02 07:54:00
1:54 AM,41.0,24.8,53,30.25,10.0,Calm,Calm,-,N/A,,Clear,0,2013-02-02 08:54:00
2:54 AM,37.9,26.1,62,30.14,10.0,Calm,Calm,-,N/A,,Clear,0,2013-02-02 09:54:00
3:54 AM,37.9,26.1,62,30.14,10.0,Calm,Calm,-,N/A,,Clear,0,2013-02-02 10:54:00
5:54 AM,36.0,25.0,64,30.16,10.0,ENE,3.5,-,N/A,,Clear,60,2013-02-02 12:54:00
6:54 AM,35.1,24.1,64,30.19,10.0,Calm,Calm,-,N/A,,Clear,0,2013-02-02 13:54:00
7:54 AM,37.0,26.1,65,30.21,10.0,NNE,4.6,-,N/A,,Clear,20,2013-02-02 14:54:00
8:54 AM,44.1,28.9,55,30.21,10.0,Calm,Calm,-,N/A,,Clear,0,2013-02-02 15:54:00
9:54 AM,48.0,32.0,54,30.22,10.0,South,3.5,-,N/A,,Clear,170,2013-02-02 16:54:00
10:54 AM,57.9,26.1,30,30.19,10.0,Calm,Calm,-,N/A,,Clear,0,2013-02-02 17:54:00
11:54 AM,66.0,18.0,16,30.15,10.0,WNW,3.5,-,N/A,,Clear,300,2013-02-02 18:54:00
12:54 PM,70.0,19.0,14,30.11,10.0,WSW,6.9,-,N/A,,Clear,240,2013-02-02 19:54:00
1:54 PM,71.1,17.1,13,30.08,10.0,WSW,3.5,-,N/A,,Clear,240,2013-02-02 20:54:00
2:54 PM,73.0,16.0,11,30.06,10.0,Calm,Calm,-,N/A,,Clear,0,2013-02-02 21:54:00
3:54 PM,73.0,12.9,10,30.05,10.0,Calm,Calm,-,N/A,,Clear,0,2013-02-02 22:54:00
4:54 PM,73.9,9.0,8,30.05,10.0,Variable,3.5,-,N/A,,Clear,0,2013-02-02 23:54:00
5:54 PM,69.1,18.0,14,30.07,10.0,NNW,4.6,-,N/A,,Clear,330,2013-02-03 00:54:00
6:54 PM,57.0,24.1,28,30.11,10.0,East,8.1,-,N/A,,Clear,80,2013-02-03 01:54:00
7:54 PM,59.0,18.0,20,30.12,10.0,Calm,Calm,-,N/A,,Clear,0,2013-02-03 02:54:00
8:54 PM,55.9,23.0,28,30.12,10.0,Calm,Calm,-,N/A,,Clear,0,2013-02-03 03:54:00
9:54 PM,53.1,26.1,35,30.11,10.0,ENE,3.5,-,N/A,,Clear,60,2013-02-03 04:54:00
10:54 PM,53.1,25.0,34,30.08,10.0,ESE,3.5,-,N/A,,Clear,120,2013-02-03 05:54:00
11:54 PM,50.0,27.0,41,30.08,10.0,Calm,Calm,-,N/A,,Clear,0,2013-02-03 06:54:00